Hovedside
METAR-TAF:

METAR-TAF

Lufthavner :

Lubango, Angola

breddegrad: 14-55-30S, lengdegrad: 13-34-30E, høyde over havet: 1761 m

Gjeldene værobservasjon

Denne rapporten ble laget for 5 timer og 4 minutter siden, klokken 16:00 UTC
Vind 14 kt fra Sør
Temperatur 31°C
Luftfuktighet 5%
Trykk 1021 hPa
Sikt 10 km eller mer
Få skyer i en høyde av 3000 ft

METAR: FNUB 211600Z 19014KT 9999 FEW030 31/M12 Q1021

Tid: 22:04 (21:04 UTC)

Varsel

Denne rapporten ble laget for 10 timer og 9 minutter siden, klokken 10:55 UTC
Varsel gyldig fra 21. klokken 12 UTC til 21. klokken 24 UTC
Vind 8 kt fra Øst
Sikt 10 km eller mer
ingen skyer under 1500 m og ingen bygeskyer
Blir
fra 21. klokken 13 UTC til 21. klokken 15 UTC
Sikt 10 km eller mer
Få skyer i en høyde av 3000 ft
Blir
fra 21. klokken 19 UTC til 21. klokken 21 UTC
Vind 2 kt fra skiftende retning

TAF: FNUB 211055Z 2112/2124 10008KT CAVOK BECMG 2113/2115 9999 FEW030 BECMG 2119/2121 VRB02KT

Værobservasjoner og værvarsel for over 4000 flyplasser (METAR- og TAF-rapporter).

Tilgjengelige stasjoner er representert av de røde og gule prikkene på kartet.

Hold musepekeren over prikken for å se navnet på stasjonen.

Klikk så for å se værobservasjoner og -varsler.

For å forandre kartet kan du klikke på den grønne knappen med svart kryss for å zoome inn, på den grønne knappen med strek for å zoome ut, eller på de grønne pilene for å se tilstøtende kart.


METAR-TAF: